createdAt,value
2023-06-08T00:01:44.910Z,100059.88
2023-06-08T00:09:05.916Z,100068.88
2023-06-08T00:16:24.974Z,100059.03
2023-06-08T00:23:43.524Z,100066.22
2023-06-08T00:31:03.909Z,100065.00
2023-06-08T00:38:22.110Z,100060.31
2023-06-08T00:45:41.154Z,100064.91
2023-06-08T00:53:02.239Z,100057.34
2023-06-08T01:00:21.643Z,100052.59
2023-06-08T01:07:50.984Z,100058.44
2023-06-08T01:15:16.425Z,100049.03
2023-06-08T01:22:46.109Z,100051.28
2023-06-08T01:30:06.340Z,100055.75
2023-06-08T01:37:27.850Z,100051.84
2023-06-08T01:44:47.709Z,100063.44
2023-06-08T01:52:09.811Z,100050.69
2023-06-08T01:59:29.457Z,100040.13
2023-06-08T02:06:48.299Z,100046.75
2023-06-08T02:14:08.338Z,100042.00
2023-06-08T02:21:28.290Z,100052.31
2023-06-08T02:28:46.540Z,100065.19
2023-06-08T02:36:07.422Z,100067.75
2023-06-08T02:43:25.926Z,100070.78
2023-06-08T02:50:45.207Z,100067.09
2023-06-08T02:58:05.221Z,100064.13
2023-06-08T03:05:25.791Z,100072.75
2023-06-08T03:12:45.919Z,100075.25
2023-06-08T03:20:07.175Z,100081.22
2023-06-08T03:27:30.158Z,100075.59
2023-06-08T03:34:53.776Z,100082.88
2023-06-08T03:42:16.280Z,100083.47
2023-06-08T03:49:37.216Z,100072.22
2023-06-08T03:56:57.161Z,100081.81
2023-06-08T04:04:19.506Z,100080.72
2023-06-08T04:11:38.615Z,100087.16
2023-06-08T04:18:58.534Z,100100.56
2023-06-08T04:26:25.356Z,100096.31
2023-06-08T04:33:45.742Z,100094.16
2023-06-08T04:41:09.246Z,100103.22
2023-06-08T04:48:30.026Z,100108.13
2023-06-08T04:55:49.031Z,100114.72
2023-06-08T05:03:07.632Z,100119.00
2023-06-08T05:10:28.088Z,100112.66
2023-06-08T05:17:46.479Z,100114.22
2023-06-08T05:25:05.895Z,100118.38
2023-06-08T05:32:26.588Z,100111.16
2023-06-08T05:39:45.599Z,100127.28
2023-06-08T05:47:04.526Z,100120.13
2023-06-08T05:54:24.064Z,100106.16
2023-06-08T06:01:42.149Z,100108.59
2023-06-08T06:09:00.489Z,100107.16
2023-06-08T06:16:23.166Z,100120.84
2023-06-08T06:23:41.505Z,100121.03
2023-06-08T06:31:00.936Z,100121.34
2023-06-08T06:38:22.668Z,100137.06
2023-06-08T06:45:42.058Z,100130.66
2023-06-08T06:53:01.112Z,100127.34
2023-06-08T07:00:23.854Z,100132.59
2023-06-08T07:07:43.608Z,100138.78
2023-06-08T07:15:01.933Z,100139.91
2023-06-08T07:22:25.869Z,100140.97
2023-06-08T07:30:00.457Z,100137.50
2023-06-08T07:37:18.675Z,100137.06
2023-06-08T07:44:38.625Z,100132.56
2023-06-08T07:51:58.310Z,100127.47
2023-06-08T07:59:16.502Z,100125.94
2023-06-08T08:06:36.973Z,100125.16
2023-06-08T08:13:55.129Z,100122.44
2023-06-08T08:21:13.359Z,100114.03
2023-06-08T08:28:34.778Z,100127.75
2023-06-08T08:35:53.218Z,100119.56
2023-06-08T08:43:13.186Z,100127.47
2023-06-08T08:50:35.451Z,100116.19
2023-06-08T08:57:54.860Z,100103.72
2023-06-08T09:05:13.051Z,100112.94
2023-06-08T09:12:41.647Z,100102.16
2023-06-08T09:20:01.011Z,100099.81
2023-06-08T09:27:28.362Z,100100.69
2023-06-08T09:34:57.186Z,100098.97
2023-06-08T09:42:17.120Z,100087.19
2023-06-08T09:49:35.496Z,100081.94
2023-06-08T09:56:59.235Z,100073.06
2023-06-08T10:04:27.529Z,100068.78
2023-06-08T10:11:46.752Z,100066.16
2023-06-08T10:19:07.825Z,100054.28
2023-06-08T10:26:28.245Z,100053.78
2023-06-08T10:33:46.846Z,100034.16
2023-06-08T10:41:07.164Z,100029.56
2023-06-08T10:48:25.377Z,100022.28
2023-06-08T10:55:48.424Z,100014.72
2023-06-08T11:03:09.058Z,100012.34
2023-06-08T11:10:28.311Z,99995.38
2023-06-08T11:17:49.599Z,99998.13
2023-06-08T11:25:10.583Z,99992.13
2023-06-08T11:32:29.807Z,99981.59
2023-06-08T11:39:49.309Z,99976.13
2023-06-08T11:47:14.137Z,99972.06
2023-06-08T11:54:37.250Z,99954.03
2023-06-08T12:02:00.431Z,99943.16
2023-06-08T12:09:21.493Z,99940.22
2023-06-08T12:16:45.809Z,99931.56
2023-06-08T12:24:04.874Z,99923.66
2023-06-08T12:31:24.670Z,99913.53
2023-06-08T12:38:42.993Z,99920.91
2023-06-08T12:46:02.846Z,99915.31
2023-06-08T12:53:22.593Z,99902.63
2023-06-08T13:00:41.710Z,99909.88
2023-06-08T13:08:08.324Z,99902.75
2023-06-08T13:15:27.995Z,99908.25
2023-06-08T13:22:48.446Z,99889.31
2023-06-08T13:30:09.653Z,99889.59
2023-06-08T13:37:30.401Z,99880.78
2023-06-08T13:44:49.461Z,99883.44
2023-06-08T13:52:09.570Z,99873.28
2023-06-08T13:59:30.966Z,99867.59
2023-06-08T14:06:49.284Z,99860.91
2023-06-08T14:14:08.145Z,99852.78
2023-06-08T14:21:28.041Z,99844.75
2023-06-08T14:28:46.216Z,99835.59
2023-06-08T14:36:04.562Z,99827.94
2023-06-08T14:43:24.716Z,99834.03
2023-06-08T14:50:43.504Z,99835.59
2023-06-08T14:58:01.841Z,99833.03
2023-06-08T15:05:21.349Z,99830.13
2023-06-08T15:12:39.656Z,99813.38
2023-06-08T15:19:58.605Z,99805.88
2023-06-08T15:27:19.053Z,99803.06
2023-06-08T15:34:37.286Z,99804.91
2023-06-08T15:41:55.468Z,99795.84
2023-06-08T15:49:15.753Z,99798.41
2023-06-08T15:56:34.036Z,99797.44
2023-06-08T16:03:53.072Z,99808.06
2023-06-08T16:11:13.503Z,99790.88
2023-06-08T16:18:32.366Z,99796.03
2023-06-08T16:25:52.141Z,99781.09
2023-06-08T16:33:12.799Z,99784.38
2023-06-08T16:40:31.025Z,99783.63
2023-06-08T16:47:49.261Z,99771.50
2023-06-08T16:55:10.246Z,99778.81
2023-06-08T17:02:29.212Z,99778.09
2023-06-08T17:09:48.330Z,99778.34
2023-06-08T17:17:08.860Z,99781.31
2023-06-08T17:24:27.381Z,99775.38
2023-06-08T17:31:46.437Z,99775.09
2023-06-08T17:39:06.320Z,99771.88
2023-06-08T17:46:24.658Z,99777.00
2023-06-08T17:53:43.228Z,99793.16
2023-06-08T18:01:03.978Z,99790.44
2023-06-08T18:08:22.690Z,99794.13
2023-06-08T18:15:41.203Z,99796.66
2023-06-08T18:23:02.184Z,99803.50
2023-06-08T18:30:22.627Z,99801.63
2023-06-08T18:37:40.853Z,99805.44
2023-06-08T18:45:01.145Z,99805.66
2023-06-08T18:52:20.077Z,99809.25
2023-06-08T18:59:38.428Z,99816.09
2023-06-08T19:06:58.746Z,99818.28
2023-06-08T19:14:17.185Z,99828.00
2023-06-08T19:21:36.785Z,99835.28
2023-06-08T19:28:56.456Z,99850.63
2023-06-08T19:36:15.375Z,99849.59
2023-06-08T19:43:34.420Z,99857.97
2023-06-08T19:50:55.069Z,99858.59
2023-06-08T19:58:13.537Z,99867.47
2023-06-08T20:05:32.654Z,99873.19
2023-06-08T20:12:53.161Z,99866.56
2023-06-08T20:20:12.578Z,99869.22
2023-06-08T20:27:31.893Z,99866.03
2023-06-08T20:34:52.177Z,99884.78
2023-06-08T20:42:12.373Z,99877.19
2023-06-08T20:49:30.748Z,99883.19
2023-06-08T20:56:50.431Z,99869.09
2023-06-08T21:04:12.171Z,99874.72
2023-06-08T21:11:31.097Z,99882.88
2023-06-08T21:18:50.603Z,99878.81
2023-06-08T21:26:08.731Z,99883.00
2023-06-08T21:33:28.728Z,99887.34
2023-06-08T21:40:48.874Z,99887.69
2023-06-08T21:48:08.045Z,99894.81
2023-06-08T21:55:27.594Z,99889.53
2023-06-08T22:02:48.225Z,99881.03
2023-06-08T22:10:07.084Z,99882.81
2023-06-08T22:17:25.473Z,99871.19
2023-06-08T22:24:46.261Z,99864.50
2023-06-08T22:32:05.020Z,99872.47
2023-06-08T22:39:23.539Z,99878.34
2023-06-08T22:46:44.386Z,99889.00
2023-06-08T22:54:04.306Z,99881.56
2023-06-08T23:01:24.679Z,99878.13
2023-06-08T23:08:49.499Z,99871.75
2023-06-08T23:16:09.716Z,99868.09
2023-06-08T23:23:28.613Z,99865.50
2023-06-08T23:30:48.918Z,99864.88
2023-06-08T23:38:08.531Z,99874.91
2023-06-08T23:45:27.636Z,99871.47
2023-06-08T23:52:48.065Z,99866.53
